sensor_id;sensor_type;location;lat;lon;timestamp;pressure;altitude;pressure_sealevel;temperature;humidity
33949;BME280;20229;49.856;19.030;2024-01-30T00:02:29;103500.87;;;-1.45;92.54
33949;BME280;20229;49.856;19.030;2024-01-30T00:07:43;103510.50;;;-1.50;92.32
33949;BME280;20229;49.856;19.030;2024-01-30T00:12:57;103507.69;;;-1.53;92.38
33949;BME280;20229;49.856;19.030;2024-01-30T00:18:11;103501.27;;;-1.58;92.71
33949;BME280;20229;49.856;19.030;2024-01-30T00:23:24;103505.59;;;-1.61;92.70
33949;BME280;20229;49.856;19.030;2024-01-30T00:28:38;103499.07;;;-1.68;92.37
33949;BME280;20229;49.856;19.030;2024-01-30T00:33:52;103498.05;;;-1.72;92.58
33949;BME280;20229;49.856;19.030;2024-01-30T00:39:07;103504.93;;;-1.78;93.01
33949;BME280;20229;49.856;19.030;2024-01-30T00:44:23;103495.86;;;-1.82;92.50
33949;BME280;20229;49.856;19.030;2024-01-30T00:49:37;103488.58;;;-1.86;92.78
33949;BME280;20229;49.856;19.030;2024-01-30T00:54:51;103494.70;;;-1.88;92.97
33949;BME280;20229;49.856;19.030;2024-01-30T01:00:07;103454.30;;;-2.17;93.18
33949;BME280;20229;49.856;19.030;2024-01-30T01:05:22;103490.80;;;-1.97;93.37
33949;BME280;20229;49.856;19.030;2024-01-30T01:10:36;103487.02;;;-2.02;93.36
33949;BME280;20229;49.856;19.030;2024-01-30T01:15:52;103483.38;;;-2.04;93.46
33949;BME280;20229;49.856;19.030;2024-01-30T01:21:06;103473.34;;;-2.09;93.85
33949;BME280;20229;49.856;19.030;2024-01-30T01:26:20;103474.16;;;-2.12;94.10
33949;BME280;20229;49.856;19.030;2024-01-30T01:31:36;103467.69;;;-2.17;93.97
33949;BME280;20229;49.856;19.030;2024-01-30T01:36:56;103459.53;;;-2.20;94.17
33949;BME280;20229;49.856;19.030;2024-01-30T01:42:10;103456.69;;;-2.25;93.85
33949;BME280;20229;49.856;19.030;2024-01-30T01:47:24;103453.10;;;-2.25;94.57
33949;BME280;20229;49.856;19.030;2024-01-30T01:52:40;103451.08;;;-2.31;94.40
33949;BME280;20229;49.856;19.030;2024-01-30T01:57:53;103435.79;;;-2.33;94.41
33949;BME280;20229;49.856;19.030;2024-01-30T02:03:10;103448.13;;;-2.37;94.69
33949;BME280;20229;49.856;19.030;2024-01-30T02:08:26;103442.80;;;-2.37;95.08
33949;BME280;20229;49.856;19.030;2024-01-30T02:13:41;103434.67;;;-2.40;95.17
33949;BME280;20229;49.856;19.030;2024-01-30T02:18:54;103442.62;;;-2.42;95.23
33949;BME280;20229;49.856;19.030;2024-01-30T02:24:12;103433.51;;;-2.47;95.02
33949;BME280;20229;49.856;19.030;2024-01-30T02:29:25;103429.84;;;-2.49;95.04
33949;BME280;20229;49.856;19.030;2024-01-30T02:34:39;103421.64;;;-2.53;95.32
33949;BME280;20229;49.856;19.030;2024-01-30T02:39:54;103425.95;;;-2.57;95.41
33949;BME280;20229;49.856;19.030;2024-01-30T02:45:09;103436.52;;;-2.60;95.52
33949;BME280;20229;49.856;19.030;2024-01-30T02:50:22;103441.73;;;-2.63;95.42
33949;BME280;20229;49.856;19.030;2024-01-30T02:55:36;103453.16;;;-2.67;95.68
33949;BME280;20229;49.856;19.030;2024-01-30T03:00:50;103437.84;;;-2.71;95.42
33949;BME280;20229;49.856;19.030;2024-01-30T03:06:05;103434.03;;;-2.76;95.58
33949;BME280;20229;49.856;19.030;2024-01-30T03:11:19;103433.08;;;-2.78;95.49
33949;BME280;20229;49.856;19.030;2024-01-30T03:16:32;103441.88;;;-2.81;95.70
33949;BME280;20229;49.856;19.030;2024-01-30T03:21:49;103442.79;;;-2.80;96.06
33949;BME280;20229;49.856;19.030;2024-01-30T03:27:05;103440.84;;;-2.84;95.95
33949;BME280;20229;49.856;19.030;2024-01-30T03:32:19;103440.78;;;-2.86;96.14
33949;BME280;20229;49.856;19.030;2024-01-30T03:37:32;103440.56;;;-2.91;96.47
33949;BME280;20229;49.856;19.030;2024-01-30T03:42:46;103432.49;;;-2.92;96.67
33949;BME280;20229;49.856;19.030;2024-01-30T03:48:00;103434.98;;;-2.97;96.57
33949;BME280;20229;49.856;19.030;2024-01-30T03:53:14;103429.64;;;-2.97;96.30
33949;BME280;20229;49.856;19.030;2024-01-30T03:58:28;103435.67;;;-3.01;96.57
33949;BME280;20229;49.856;19.030;2024-01-30T04:03:42;103428.45;;;-3.03;96.34
33949;BME280;20229;49.856;19.030;2024-01-30T04:08:58;103441.73;;;-3.05;96.63
33949;BME280;20229;49.856;19.030;2024-01-30T04:14:12;103441.69;;;-3.06;96.79
33949;BME280;20229;49.856;19.030;2024-01-30T04:19:26;103445.13;;;-3.09;96.73
33949;BME280;20229;49.856;19.030;2024-01-30T04:24:40;103439.65;;;-3.12;96.70
33949;BME280;20229;49.856;19.030;2024-01-30T04:29:56;103444.94;;;-3.14;96.67
33949;BME280;20229;49.856;19.030;2024-01-30T04:35:10;103446.70;;;-3.14;96.63
33949;BME280;20229;49.856;19.030;2024-01-30T04:40:28;103446.57;;;-3.17;96.98
33949;BME280;20229;49.856;19.030;2024-01-30T04:45:42;103439.37;;;-3.18;97.00
33949;BME280;20229;49.856;19.030;2024-01-30T04:50:56;103436.59;;;-3.21;96.76
33949;BME280;20229;49.856;19.030;2024-01-30T04:56:10;103432.07;;;-3.22;96.57
33949;BME280;20229;49.856;19.030;2024-01-30T05:01:24;103437.27;;;-3.25;96.82
33949;BME280;20229;49.856;19.030;2024-01-30T05:06:37;103428.30;;;-3.27;96.89
33949;BME280;20229;49.856;19.030;2024-01-30T05:11:52;103437.02;;;-3.31;97.14
33949;BME280;20229;49.856;19.030;2024-01-30T05:17:06;103431.55;;;-3.34;96.31
33949;BME280;20229;49.856;19.030;2024-01-30T05:22:23;103435.89;;;-3.37;96.47
33949;BME280;20229;49.856;19.030;2024-01-30T05:27:36;103435.84;;;-3.38;96.86
33949;BME280;20229;49.856;19.030;2024-01-30T05:32:51;103436.61;;;-3.41;96.98
33949;BME280;20229;49.856;19.030;2024-01-30T05:38:06;103431.27;;;-3.41;96.88
33949;BME280;20229;49.856;19.030;2024-01-30T05:43:20;103432.03;;;-3.43;96.75
33949;BME280;20229;49.856;19.030;2024-01-30T05:48:34;103425.78;;;-3.44;96.97
33949;BME280;20229;49.856;19.030;2024-01-30T05:53:48;103425.65;;;-3.47;97.00
33949;BME280;20229;49.856;19.030;2024-01-30T05:59:02;103424.68;;;-3.49;96.82
33949;BME280;20229;49.856;19.030;2024-01-30T06:04:16;103425.50;;;-3.50;96.91
33949;BME280;20229;49.856;19.030;2024-01-30T06:09:30;103421.86;;;-3.52;96.49
33949;BME280;20229;49.856;19.030;2024-01-30T06:14:45;103419.10;;;-3.53;96.94
33949;BME280;20229;49.856;19.030;2024-01-30T06:19:59;103420.05;;;-3.53;96.97
33949;BME280;20229;49.856;19.030;2024-01-30T06:25:13;103426.30;;;-3.52;97.13
33949;BME280;20229;49.856;19.030;2024-01-30T06:30:27;103425.50;;;-3.50;97.05
33949;BME280;20229;49.856;19.030;2024-01-30T06:35:40;103438.02;;;-3.49;97.39
33949;BME280;20229;49.856;19.030;2024-01-30T06:40:55;103438.17;;;-3.46;97.46
33949;BME280;20229;49.856;19.030;2024-01-30T06:46:09;103441.81;;;-3.44;97.38
33949;BME280;20229;49.856;19.030;2024-01-30T06:51:23;103450.96;;;-3.39;97.36
33949;BME280;20229;49.856;19.030;2024-01-30T06:56:37;103455.49;;;-3.36;97.60
33949;BME280;20229;49.856;19.030;2024-01-30T07:01:50;103455.79;;;-3.30;97.70
33949;BME280;20229;49.856;19.030;2024-01-30T07:07:04;103450.63;;;-3.25;97.69
33949;BME280;20229;49.856;19.030;2024-01-30T07:12:19;103452.82;;;-3.17;97.74
33949;BME280;20229;49.856;19.030;2024-01-30T07:17:36;103453.99;;;-3.10;98.03
33949;BME280;20229;49.856;19.030;2024-01-30T07:22:50;103449.98;;;-3.00;97.85
33949;BME280;20229;49.856;19.030;2024-01-30T07:28:05;103447.62;;;-2.93;97.99
33949;BME280;20229;49.856;19.030;2024-01-30T07:33:19;103445.41;;;-2.82;98.00
33949;BME280;20229;49.856;19.030;2024-01-30T07:38:33;103445.01;;;-2.70;98.49
33949;BME280;20229;49.856;19.030;2024-01-30T07:43:47;103429.49;;;-2.58;99.02
33949;BME280;20229;49.856;19.030;2024-01-30T07:49:06;103426.52;;;-2.43;99.36
33949;BME280;20229;49.856;19.030;2024-01-30T07:54:20;103418.43;;;-2.22;100.00
33949;BME280;20229;49.856;19.030;2024-01-30T07:59:34;103419.40;;;-1.98;100.00
33949;BME280;20229;49.856;19.030;2024-01-30T08:04:48;103422.20;;;-1.71;100.00
33949;BME280;20229;49.856;19.030;2024-01-30T08:10:03;103428.42;;;-1.48;100.00
33949;BME280;20229;49.856;19.030;2024-01-30T08:15:17;103435.73;;;-1.18;100.00
33949;BME280;20229;49.856;19.030;2024-01-30T08:20:32;103429.45;;;-0.93;100.00
33949;BME280;20229;49.856;19.030;2024-01-30T08:25:46;103413.50;;;-0.63;100.00
33949;BME280;20229;49.856;19.030;2024-01-30T08:31:00;103413.56;;;-0.33;100.00
33949;BME280;20229;49.856;19.030;2024-01-30T08:36:15;103424.17;;;-0.09;100.00
33949;BME280;20229;49.856;19.030;2024-01-30T08:41:28;103419.64;;;0.19;100.00
33949;BME280;20229;49.856;19.030;2024-01-30T08:46:42;103433.11;;;0.51;100.00
33949;BME280;20229;49.856;19.030;2024-01-30T08:51:57;103435.88;;;0.85;99.55
33949;BME280;20229;49.856;19.030;2024-01-30T08:57:10;103428.69;;;1.19;98.98
33949;BME280;20229;49.856;19.030;2024-01-30T09:02:24;103433.89;;;1.48;98.73
33949;BME280;20229;49.856;19.030;2024-01-30T09:07:38;103428.36;;;1.78;96.16
33949;BME280;20229;49.856;19.030;2024-01-30T09:12:52;103433.58;;;2.11;96.14
33949;BME280;20229;49.856;19.030;2024-01-30T09:18:06;103435.09;;;2.39;94.58
33949;BME280;20229;49.856;19.030;2024-01-30T09:23:30;103423.13;;;2.69;94.54
33949;BME280;20229;49.856;19.030;2024-01-30T09:28:45;103420.03;;;2.96;92.79
33949;BME280;20229;49.856;19.030;2024-01-30T09:33:58;103412.37;;;3.20;91.93
33949;BME280;20229;49.856;19.030;2024-01-30T09:39:13;103420.88;;;3.45;91.57
33949;BME280;20229;49.856;19.030;2024-01-30T09:44:30;103412.23;;;3.67;90.74
33949;BME280;20229;49.856;19.030;2024-01-30T09:49:44;103397.24;;;3.88;90.24
33949;BME280;20229;49.856;19.030;2024-01-30T09:55:02;103393.96;;;4.10;88.83
33949;BME280;20229;49.856;19.030;2024-01-30T10:00:19;103399.65;;;4.31;87.17
33949;BME280;20229;49.856;19.030;2024-01-30T10:05:36;103391.75;;;4.51;85.74
33949;BME280;20229;49.856;19.030;2024-01-30T10:12:11;103401.05;;;4.75;84.42
33949;BME280;20229;49.856;19.030;2024-01-30T10:17:37;103394.91;;;4.93;85.86
33949;BME280;20229;49.856;19.030;2024-01-30T10:22:51;103381.57;;;5.16;84.71
33949;BME280;20229;49.856;19.030;2024-01-30T10:28:07;103375.44;;;5.34;85.94
33949;BME280;20229;49.856;19.030;2024-01-30T10:33:20;103376.48;;;5.54;83.03
33949;BME280;20229;49.856;19.030;2024-01-30T10:38:36;103373.88;;;5.71;84.52
33949;BME280;20229;49.856;19.030;2024-01-30T10:49:18;103365.06;;;6.03;81.98
33949;BME280;20229;49.856;19.030;2024-01-30T10:54:34;103352.49;;;6.25;82.33
33949;BME280;20229;49.856;19.030;2024-01-30T10:59:50;103339.88;;;6.39;81.78
33949;BME280;20229;49.856;19.030;2024-01-30T11:05:06;103329.99;;;6.62;77.99
33949;BME280;20229;49.856;19.030;2024-01-30T11:10:25;103323.66;;;6.71;80.00
33949;BME280;20229;49.856;19.030;2024-01-30T11:15:38;103325.52;;;6.86;79.14
33949;BME280;20229;49.856;19.030;2024-01-30T11:20:56;103321.89;;;7.05;79.05
33949;BME280;20229;49.856;19.030;2024-01-30T11:26:11;103307.41;;;7.22;77.40
33949;BME280;20229;49.856;19.030;2024-01-30T11:31:26;103307.38;;;7.37;76.88
33949;BME280;20229;49.856;19.030;2024-01-30T11:36:42;103299.20;;;7.54;77.63
33949;BME280;20229;49.856;19.030;2024-01-30T11:41:57;103294.60;;;7.70;76.83
33949;BME280;20229;49.856;19.030;2024-01-30T11:47:12;103278.25;;;7.85;75.59
33949;BME280;20229;49.856;19.030;2024-01-30T11:52:28;103281.80;;;7.98;70.79
33949;BME280;20229;49.856;19.030;2024-01-30T11:57:42;103269.07;;;8.07;71.98
33949;BME280;20229;49.856;19.030;2024-01-30T12:02:58;103266.26;;;8.20;73.60
33949;BME280;20229;49.856;19.030;2024-01-30T12:08:15;103252.59;;;8.35;71.57
33949;BME280;20229;49.856;19.030;2024-01-30T12:13:30;103238.04;;;8.45;71.94
33949;BME280;20229;49.856;19.030;2024-01-30T12:18:44;103245.18;;;8.58;72.10
33949;BME280;20229;49.856;19.030;2024-01-30T12:23:59;103240.50;;;8.77;66.16
33949;BME280;20229;49.856;19.030;2024-01-30T12:29:14;103220.34;;;8.98;66.08
33949;BME280;20229;49.856;19.030;2024-01-30T12:34:29;103225.57;;;9.20;64.52
33949;BME280;20229;49.856;19.030;2024-01-30T12:39:43;103219.85;;;9.44;62.06
33949;BME280;20229;49.856;19.030;2024-01-30T12:44:58;103217.80;;;9.63;61.39
33949;BME280;20229;49.856;19.030;2024-01-30T12:50:12;103212.98;;;9.82;61.23
33949;BME280;20229;49.856;19.030;2024-01-30T12:55:30;103199.20;;;9.93;54.77
33949;BME280;20229;49.856;19.030;2024-01-30T13:00:44;103207.20;;;10.06;55.82
33949;BME280;20229;49.856;19.030;2024-01-30T13:05:58;103208.86;;;10.17;54.52
33949;BME280;20229;49.856;19.030;2024-01-30T13:11:12;103196.03;;;10.23;55.03
33949;BME280;20229;49.856;19.030;2024-01-30T13:16:26;103204.16;;;10.29;52.31
33949;BME280;20229;49.856;19.030;2024-01-30T13:21:39;103195.91;;;10.34;53.67
33949;BME280;20229;49.856;19.030;2024-01-30T13:26:53;103193.16;;;10.36;54.36
33949;BME280;20229;49.856;19.030;2024-01-30T13:32:07;103203.11;;;10.38;52.43
33949;BME280;20229;49.856;19.030;2024-01-30T13:37:23;103194.05;;;10.36;50.57
33949;BME280;20229;49.856;19.030;2024-01-30T13:42:37;103206.77;;;10.37;50.91
33949;BME280;20229;49.856;19.030;2024-01-30T13:47:50;103206.77;;;10.37;49.65
33949;BME280;20229;49.856;19.030;2024-01-30T13:53:04;103190.45;;;10.34;49.27
33949;BME280;20229;49.856;19.030;2024-01-30T13:58:18;103188.69;;;10.30;48.94
33949;BME280;20229;49.856;19.030;2024-01-30T14:03:32;103186.95;;;10.23;48.26
33949;BME280;20229;49.856;19.030;2024-01-30T14:08:46;103185.28;;;10.13;48.64
33949;BME280;20229;49.856;19.030;2024-01-30T14:13:59;103181.81;;;10.01;48.26
33949;BME280;20229;49.856;19.030;2024-01-30T14:19:13;103184.78;;;9.86;49.51
33949;BME280;20229;49.856;19.030;2024-01-30T14:24:27;103185.85;;;9.73;48.74
33949;BME280;20229;49.856;19.030;2024-01-30T14:29:40;103186.96;;;9.58;48.44
33949;BME280;20229;49.856;19.030;2024-01-30T14:34:58;103189.86;;;9.44;49.30
33949;BME280;20229;49.856;19.030;2024-01-30T14:40:13;103184.53;;;9.33;49.37
33949;BME280;20229;49.856;19.030;2024-01-30T14:45:27;103182.83;;;9.22;49.12
33949;BME280;20229;49.856;19.030;2024-01-30T14:50:41;103192.98;;;9.09;48.93
33949;BME280;20229;49.856;19.030;2024-01-30T14:55:55;103190.39;;;8.95;48.68
33949;BME280;20229;49.856;19.030;2024-01-30T15:01:09;103195.08;;;8.81;48.86
33949;BME280;20229;49.856;19.030;2024-01-30T15:06:23;103197.89;;;8.69;50.39
33949;BME280;20229;49.856;19.030;2024-01-30T15:11:38;103195.36;;;8.49;50.07
33949;BME280;20229;49.856;19.030;2024-01-30T15:16:52;103184.52;;;8.36;49.85
33949;BME280;20229;49.856;19.030;2024-01-30T15:22:06;103189.16;;;8.22;49.85
33949;BME280;20229;49.856;19.030;2024-01-30T15:27:19;103186.52;;;8.08;50.16
33949;BME280;20229;49.856;19.030;2024-01-30T15:32:35;103184.83;;;7.90;50.55
33949;BME280;20229;49.856;19.030;2024-01-30T15:37:49;103184.90;;;7.74;51.80
33949;BME280;20229;49.856;19.030;2024-01-30T15:43:04;103190.45;;;7.52;52.24
33949;BME280;20229;49.856;19.030;2024-01-30T15:48:18;103180.58;;;7.27;53.56
33949;BME280;20229;49.856;19.030;2024-01-30T15:53:32;103184.28;;;6.98;54.12
33949;BME280;20229;49.856;19.030;2024-01-30T15:58:46;103184.33;;;6.75;55.37
33949;BME280;20229;49.856;19.030;2024-01-30T16:04:04;103178.89;;;6.49;56.31
33949;BME280;20229;49.856;19.030;2024-01-30T16:09:18;103177.08;;;6.23;57.08
33949;BME280;20229;49.856;19.030;2024-01-30T16:14:32;103178.82;;;5.97;57.77
33949;BME280;20229;49.856;19.030;2024-01-30T16:19:49;103185.98;;;5.73;58.29
33949;BME280;20229;49.856;19.030;2024-01-30T16:25:06;103184.98;;;5.48;58.83
33949;BME280;20229;49.856;19.030;2024-01-30T16:30:19;103183.08;;;5.27;59.19
33949;BME280;20229;49.856;19.030;2024-01-30T16:35:33;103193.81;;;5.09;59.79
33949;BME280;20229;49.856;19.030;2024-01-30T16:40:49;103196.45;;;5.00;59.91
33949;BME280;20229;49.856;19.030;2024-01-30T16:46:05;103193.66;;;4.89;59.96
33949;BME280;20229;49.856;19.030;2024-01-30T16:51:19;103189.99;;;4.79;59.39
33949;BME280;20229;49.856;19.030;2024-01-30T16:56:33;103193.51;;;4.69;59.83
33949;BME280;20229;49.856;19.030;2024-01-30T17:01:49;103188.98;;;4.65;60.45
33949;BME280;20229;49.856;19.030;2024-01-30T17:07:05;103188.91;;;4.56;60.25
33949;BME280;20229;49.856;19.030;2024-01-30T17:12:19;103188.87;;;4.50;59.54
33949;BME280;20229;49.856;19.030;2024-01-30T17:17:33;103180.69;;;4.44;59.54
33949;BME280;20229;49.856;19.030;2024-01-30T17:22:47;103175.26;;;4.41;59.45
33949;BME280;20229;49.856;19.030;2024-01-30T17:28:01;103178.82;;;4.35;60.24
33949;BME280;20229;49.856;19.030;2024-01-30T17:33:15;103167.92;;;4.24;60.54
33949;BME280;20229;49.856;19.030;2024-01-30T17:38:30;103174.98;;;4.12;60.96
33949;BME280;20229;49.856;19.030;2024-01-30T17:43:44;103167.75;;;4.07;60.02
33949;BME280;20229;49.856;19.030;2024-01-30T17:48:59;103173.14;;;4.07;60.15
33949;BME280;20229;49.856;19.030;2024-01-30T17:54:13;103169.55;;;4.07;58.84
33949;BME280;20229;49.856;19.030;2024-01-30T17:59:27;103175.85;;;4.09;58.75
33949;BME280;20229;49.856;19.030;2024-01-30T18:04:42;103173.20;;;4.12;58.95
33949;BME280;20229;49.856;19.030;2024-01-30T18:09:57;103165.11;;;4.14;58.37
33949;BME280;20229;49.856;19.030;2024-01-30T18:15:11;103170.55;;;4.18;58.40
33949;BME280;20229;49.856;19.030;2024-01-30T18:20:26;103165.14;;;4.18;57.75
33949;BME280;20229;49.856;19.030;2024-01-30T18:25:40;103166.92;;;4.16;57.99
33949;BME280;20229;49.856;19.030;2024-01-30T18:30:57;103161.48;;;4.10;58.06
33949;BME280;20229;49.856;19.030;2024-01-30T18:36:11;103155.14;;;4.06;58.43
33949;BME280;20229;49.856;19.030;2024-01-30T18:41:25;103154.16;;;4.00;58.40
33949;BME280;20229;49.856;19.030;2024-01-30T18:46:39;103146.91;;;3.97;58.34
33949;BME280;20229;49.856;19.030;2024-01-30T18:51:56;103164.97;;;4.00;57.59
33949;BME280;20229;49.856;19.030;2024-01-30T18:57:12;103158.66;;;4.02;57.41
33949;BME280;20229;49.856;19.030;2024-01-30T19:02:26;103160.48;;;4.02;57.53
33949;BME280;20229;49.856;19.030;2024-01-30T19:07:40;103173.98;;;4.02;57.49
33949;BME280;20229;49.856;19.030;2024-01-30T19:12:54;103165.80;;;3.94;57.20
33949;BME280;20229;49.856;19.030;2024-01-30T19:18:08;103156.75;;;3.91;57.35
33949;BME280;20229;49.856;19.030;2024-01-30T19:23:22;103161.23;;;3.89;57.40
33949;BME280;20229;49.856;19.030;2024-01-30T19:28:36;103166.59;;;3.84;58.09
33949;BME280;20229;49.856;19.030;2024-01-30T19:33:50;103168.32;;;3.77;58.36
33949;BME280;20229;49.856;19.030;2024-01-30T19:39:07;103170.03;;;3.69;58.17
33949;BME280;20229;49.856;19.030;2024-01-30T19:44:26;103178.10;;;3.66;58.00
33949;BME280;20229;49.856;19.030;2024-01-30T19:49:40;103180.81;;;3.66;58.55
33949;BME280;20229;49.856;19.030;2024-01-30T19:54:56;103175.35;;;3.62;58.63
33949;BME280;20229;49.856;19.030;2024-01-30T20:00:10;103172.66;;;3.62;58.56
33949;BME280;20229;49.856;19.030;2024-01-30T20:05:26;103177.11;;;3.58;58.48
33949;BME280;20229;49.856;19.030;2024-01-30T20:10:40;103177.08;;;3.55;58.63
33949;BME280;20229;49.856;19.030;2024-01-30T20:15:56;103179.60;;;3.43;58.96
33949;BME280;20229;49.856;19.030;2024-01-30T20:21:12;103181.27;;;3.30;59.74
33949;BME280;20229;49.856;19.030;2024-01-30T20:26:27;103174.72;;;3.14;60.50
33949;BME280;20229;49.856;19.030;2024-01-30T20:31:42;103165.48;;;2.97;60.95
33949;BME280;20229;49.856;19.030;2024-01-30T20:36:56;103165.32;;;2.84;62.58
33949;BME280;20229;49.856;19.030;2024-01-30T20:42:10;103169.60;;;2.70;63.46
33949;BME280;20229;49.856;19.030;2024-01-30T20:47:24;103168.42;;;2.53;64.13
33949;BME280;20229;49.856;19.030;2024-01-30T20:52:38;103167.23;;;2.35;65.58
33949;BME280;20229;49.856;19.030;2024-01-30T20:57:52;103170.58;;;2.21;65.89
33949;BME280;20229;49.856;19.030;2024-01-30T21:03:07;103174.89;;;2.11;66.74
33949;BME280;20229;49.856;19.030;2024-01-30T21:08:20;103174.65;;;1.97;67.19
33949;BME280;20229;49.856;19.030;2024-01-30T21:13:34;103163.59;;;1.82;68.30
33949;BME280;20229;49.856;19.030;2024-01-30T21:18:49;103171.33;;;1.65;68.28
33949;BME280;20229;49.856;19.030;2024-01-30T21:24:04;103174.65;;;1.52;68.78
33949;BME280;20229;49.856;19.030;2024-01-30T21:29:17;103173.45;;;1.37;68.74
33949;BME280;20229;49.856;19.030;2024-01-30T21:34:31;103166.03;;;1.24;69.56
33949;BME280;20229;49.856;19.030;2024-01-30T21:39:46;103171.05;;;1.09;70.35
33949;BME280;20229;49.856;19.030;2024-01-30T21:45:00;103157.27;;;0.93;70.76
33949;BME280;20229;49.856;19.030;2024-01-30T21:50:17;103160.62;;;0.83;71.00
33949;BME280;20229;49.856;19.030;2024-01-30T21:55:32;103148.73;;;0.74;71.08
33949;BME280;20229;49.856;19.030;2024-01-30T22:00:48;103145.72;;;0.60;71.87
33949;BME280;20229;49.856;19.030;2024-01-30T22:06:02;103146.42;;;0.51;71.90
33949;BME280;20229;49.856;19.030;2024-01-30T22:11:16;103154.23;;;0.40;72.86
33949;BME280;20229;49.856;19.030;2024-01-30T22:16:30;103155.77;;;0.31;73.12
33949;BME280;20229;49.856;19.030;2024-01-30T22:21:47;103151.00;;;0.19;73.20
33949;BME280;20229;49.856;19.030;2024-01-30T22:27:00;103154.39;;;0.12;73.72
33949;BME280;20229;49.856;19.030;2024-01-30T22:32:14;103159.52;;;0.03;74.36
33949;BME280;20229;49.856;19.030;2024-01-30T22:37:28;103162.83;;;-0.08;74.44
33949;BME280;20229;49.856;19.030;2024-01-30T22:42:43;103162.59;;;-0.17;74.70
33949;BME280;20229;49.856;19.030;2024-01-30T22:47:56;103172.25;;;-0.23;74.87
33949;BME280;20229;49.856;19.030;2024-01-30T22:53:10;103178.26;;;-0.32;75.83
33949;BME280;20229;49.856;19.030;2024-01-30T22:58:24;103185.17;;;-0.42;75.92
33949;BME280;20229;49.856;19.030;2024-01-30T23:03:42;103180.49;;;-0.49;76.69
33949;BME280;20229;49.856;19.030;2024-01-30T23:08:55;103179.41;;;-0.56;76.82
33949;BME280;20229;49.856;19.030;2024-01-30T23:14:09;103177.41;;;-0.63;77.25
33949;BME280;20229;49.856;19.030;2024-01-30T23:19:23;103186.13;;;-0.70;77.17
33949;BME280;20229;49.856;19.030;2024-01-30T23:24:37;103186.76;;;-0.79;77.95
33949;BME280;20229;49.856;19.030;2024-01-30T23:29:50;103182.95;;;-0.87;78.21
33949;BME280;20229;49.856;19.030;2024-01-30T23:35:05;103182.75;;;-0.93;78.53
33949;BME280;20229;49.856;19.030;2024-01-30T23:40:19;103179.93;;;-0.98;78.61
33949;BME280;20229;49.856;19.030;2024-01-30T23:45:35;103183.29;;;-1.05;78.97
33949;BME280;20229;49.856;19.030;2024-01-30T23:50:51;103201.99;;;-1.06;79.45
33949;BME280;20229;49.856;19.030;2024-01-30T23:56:06;103182.99;;;-1.14;79.98
